sensor_id;sensor_type;location;lat;lon;timestamp;temperature;humidity
45042;DHT22;30779;52.096;4.410;2022-07-06T08:56:52;16.70;99.90
45042;DHT22;30779;52.096;4.410;2022-07-06T08:59:53;19.60;99.90
45042;DHT22;30779;52.096;4.410;2022-07-06T09:02:54;19.60;99.90
45042;DHT22;30779;52.096;4.410;2022-07-06T09:06:01;19.50;99.90
45042;DHT22;30779;52.096;4.410;2022-07-06T09:09:05;19.40;99.90
45042;DHT22;30779;52.096;4.410;2022-07-06T09:12:11;19.50;99.90
45042;DHT22;30779;52.096;4.410;2022-07-06T09:15:13;19.50;99.90
45042;DHT22;30779;52.096;4.410;2022-07-06T09:18:14;19.70;99.90
45042;DHT22;30779;52.096;4.410;2022-07-06T09:21:29;19.60;99.90
45042;DHT22;30779;52.096;4.410;2022-07-06T09:24:32;19.70;99.80
45042;DHT22;30779;52.096;4.410;2022-07-06T09:27:40;19.60;99.90
45042;DHT22;30779;52.096;4.410;2022-07-06T09:30:41;19.70;99.90
45042;DHT22;30779;52.096;4.410;2022-07-06T09:34:02;19.50;99.90
45042;DHT22;30779;52.096;4.410;2022-07-06T09:37:06;19.40;99.90
45042;DHT22;30779;52.096;4.410;2022-07-06T09:40:16;19.40;99.90
45042;DHT22;30779;52.096;4.410;2022-07-06T09:43:18;19.50;99.90
45042;DHT22;30779;52.096;4.410;2022-07-06T09:46:19;19.60;99.40
45042;DHT22;30779;52.096;4.410;2022-07-06T09:49:21;19.80;99.10
45042;DHT22;30779;52.096;4.410;2022-07-06T09:52:23;19.90;99.40
45042;DHT22;30779;52.096;4.410;2022-07-06T09:55:24;20.00;99.30
45042;DHT22;30779;52.096;4.410;2022-07-06T09:58:25;20.00;99.30
45042;DHT22;30779;52.096;4.410;2022-07-06T10:01:26;19.90;99.70
45042;DHT22;30779;52.096;4.410;2022-07-06T10:04:29;20.00;98.70
45042;DHT22;30779;52.096;4.410;2022-07-06T10:07:30;20.00;97.40
45042;DHT22;30779;52.096;4.410;2022-07-06T10:10:31;19.90;97.20
45042;DHT22;30779;52.096;4.410;2022-07-06T10:13:33;20.00;98.20
45042;DHT22;30779;52.096;4.410;2022-07-06T10:16:36;20.20;98.60
45042;DHT22;30779;52.096;4.410;2022-07-06T10:19:38;20.40;98.80
45042;DHT22;30779;52.096;4.410;2022-07-06T10:22:39;20.70;97.20
45042;DHT22;30779;52.096;4.410;2022-07-06T10:25:41;20.90;97.60
45042;DHT22;30779;52.096;4.410;2022-07-06T10:28:42;21.10;97.20
45042;DHT22;30779;52.096;4.410;2022-07-06T10:31:46;21.00;97.20
45042;DHT22;30779;52.096;4.410;2022-07-06T10:38:05;22.10;96.20
45042;DHT22;30779;52.096;4.410;2022-07-06T10:41:08;22.60;96.20
45042;DHT22;30779;52.096;4.410;2022-07-06T10:44:18;23.10;95.20
45042;DHT22;30779;52.096;4.410;2022-07-06T10:47:27;23.30;94.50
45042;DHT22;30779;52.096;4.410;2022-07-06T10:50:34;23.30;95.40
45042;DHT22;30779;52.096;4.410;2022-07-06T10:53:37;23.80;94.70
45042;DHT22;30779;52.096;4.410;2022-07-06T10:56:40;24.10;93.40
45042;DHT22;30779;52.096;4.410;2022-07-06T11:00:03;23.60;93.40
45042;DHT22;30779;52.096;4.410;2022-07-06T11:06:45;24.60;93.20
45042;DHT22;30779;52.096;4.410;2022-07-06T11:13:00;24.90;92.40
45042;DHT22;30779;52.096;4.410;2022-07-06T11:34:21;24.90;99.90
45042;DHT22;30779;52.096;4.410;2022-07-06T11:37:22;24.80;99.90
45042;DHT22;30779;52.096;4.410;2022-07-06T11:40:23;24.30;99.90
45042;DHT22;30779;52.096;4.410;2022-07-06T11:43:24;24.10;99.90
45042;DHT22;30779;52.096;4.410;2022-07-06T11:46:27;24.10;99.90
45042;DHT22;30779;52.096;4.410;2022-07-06T11:49:28;24.30;99.90
45042;DHT22;30779;52.096;4.410;2022-07-06T11:52:30;24.20;99.90
45042;DHT22;30779;52.096;4.410;2022-07-06T11:55:31;24.20;99.90
45042;DHT22;30779;52.096;4.410;2022-07-06T11:58:32;23.80;92.00
45042;DHT22;30779;52.096;4.410;2022-07-06T12:01:35;23.50;93.50
45042;DHT22;30779;52.096;4.410;2022-07-06T12:04:38;23.40;93.10
45042;DHT22;30779;52.096;4.410;2022-07-06T12:07:39;23.40;93.70
45042;DHT22;30779;52.096;4.410;2022-07-06T12:10:40;23.20;93.90
45042;DHT22;30779;52.096;4.410;2022-07-06T12:13:40;23.00;94.90
45042;DHT22;30779;52.096;4.410;2022-07-06T12:16:41;22.80;93.90
45042;DHT22;30779;52.096;4.410;2022-07-06T12:19:42;22.70;94.60
45042;DHT22;30779;52.096;4.410;2022-07-06T12:22:43;22.80;94.30
45042;DHT22;30779;52.096;4.410;2022-07-06T12:25:44;22.60;95.10
45042;DHT22;30779;52.096;4.410;2022-07-06T12:28:46;22.60;95.70
45042;DHT22;30779;52.096;4.410;2022-07-06T12:31:58;22.50;96.30
45042;DHT22;30779;52.096;4.410;2022-07-06T12:35:07;22.50;96.10
45042;DHT22;30779;52.096;4.410;2022-07-06T12:38:08;22.30;97.20
45042;DHT22;30779;52.096;4.410;2022-07-06T12:41:09;22.20;97.30
45042;DHT22;30779;52.096;4.410;2022-07-06T12:44:10;22.30;97.40
45042;DHT22;30779;52.096;4.410;2022-07-06T12:47:11;22.50;97.50
45042;DHT22;30779;52.096;4.410;2022-07-06T12:50:12;22.50;97.50
45042;DHT22;30779;52.096;4.410;2022-07-06T12:53:26;22.60;97.40
45042;DHT22;30779;52.096;4.410;2022-07-06T12:56:27;22.80;96.50
45042;DHT22;30779;52.096;4.410;2022-07-06T12:59:28;23.10;96.40
45042;DHT22;30779;52.096;4.410;2022-07-06T13:02:31;23.10;96.10
45042;DHT22;30779;52.096;4.410;2022-07-06T13:05:31;23.00;97.60
45042;DHT22;30779;52.096;4.410;2022-07-06T13:08:32;22.80;98.00
45042;DHT22;30779;52.096;4.410;2022-07-06T13:11:33;22.60;99.20
45042;DHT22;30779;52.096;4.410;2022-07-06T13:14:34;22.20;99.90
45042;DHT22;30779;52.096;4.410;2022-07-06T13:17:35;21.90;99.90
45042;DHT22;30779;52.096;4.410;2022-07-06T13:20:37;21.70;99.90
45042;DHT22;30779;52.096;4.410;2022-07-06T13:23:38;21.80;99.90
45042;DHT22;30779;52.096;4.410;2022-07-06T13:26:38;21.70;99.90
45042;DHT22;30779;52.096;4.410;2022-07-06T13:29:39;21.80;99.90
45042;DHT22;30779;52.096;4.410;2022-07-06T13:32:40;21.60;99.90
45042;DHT22;30779;52.096;4.410;2022-07-06T13:35:40;21.40;99.90
45042;DHT22;30779;52.096;4.410;2022-07-06T13:38:41;21.20;99.90
45042;DHT22;30779;52.096;4.410;2022-07-06T13:41:43;21.00;99.90
45042;DHT22;30779;52.096;4.410;2022-07-06T13:44:44;20.90;99.90
45042;DHT22;30779;52.096;4.410;2022-07-06T13:47:45;21.00;99.90
45042;DHT22;30779;52.096;4.410;2022-07-06T13:50:45;21.10;99.90
45042;DHT22;30779;52.096;4.410;2022-07-06T13:53:46;21.20;99.90
45042;DHT22;30779;52.096;4.410;2022-07-06T13:56:47;21.10;99.90
45042;DHT22;30779;52.096;4.410;2022-07-06T13:59:47;21.00;99.90
45042;DHT22;30779;52.096;4.410;2022-07-06T14:02:48;21.00;99.90
45042;DHT22;30779;52.096;4.410;2022-07-06T14:05:49;21.10;99.90
45042;DHT22;30779;52.096;4.410;2022-07-06T14:08:49;21.20;99.90
45042;DHT22;30779;52.096;4.410;2022-07-06T14:11:50;21.50;99.90
45042;DHT22;30779;52.096;4.410;2022-07-06T14:14:50;21.70;99.90
45042;DHT22;30779;52.096;4.410;2022-07-06T14:17:51;22.00;99.90
45042;DHT22;30779;52.096;4.410;2022-07-06T14:20:53;21.90;99.90
45042;DHT22;30779;52.096;4.410;2022-07-06T14:23:53;21.80;99.90
45042;DHT22;30779;52.096;4.410;2022-07-06T14:26:54;21.70;99.90
45042;DHT22;30779;52.096;4.410;2022-07-06T14:29:54;21.80;99.90
45042;DHT22;30779;52.096;4.410;2022-07-06T14:32:56;21.90;99.90
45042;DHT22;30779;52.096;4.410;2022-07-06T14:35:56;21.80;99.90
45042;DHT22;30779;52.096;4.410;2022-07-06T14:38:57;21.80;99.90
45042;DHT22;30779;52.096;4.410;2022-07-06T14:41:58;21.70;99.90
45042;DHT22;30779;52.096;4.410;2022-07-06T14:44:58;21.60;99.90
45042;DHT22;30779;52.096;4.410;2022-07-06T14:47:59;21.40;99.90
45042;DHT22;30779;52.096;4.410;2022-07-06T14:51:00;21.10;99.90
45042;DHT22;30779;52.096;4.410;2022-07-06T14:54:01;21.00;99.90
45042;DHT22;30779;52.096;4.410;2022-07-06T14:57:02;21.00;99.90
45042;DHT22;30779;52.096;4.410;2022-07-06T15:00:05;20.90;99.90
45042;DHT22;30779;52.096;4.410;2022-07-06T15:03:06;21.10;99.90
45042;DHT22;30779;52.096;4.410;2022-07-06T15:06:06;21.20;99.90
45042;DHT22;30779;52.096;4.410;2022-07-06T15:09:07;21.20;99.90
45042;DHT22;30779;52.096;4.410;2022-07-06T15:12:08;21.10;99.90
45042;DHT22;30779;52.096;4.410;2022-07-06T15:15:09;21.10;99.90
45042;DHT22;30779;52.096;4.410;2022-07-06T15:18:10;21.20;99.90
45042;DHT22;30779;52.096;4.410;2022-07-06T15:21:11;21.10;99.90
45042;DHT22;30779;52.096;4.410;2022-07-06T15:24:11;21.00;99.90
45042;DHT22;30779;52.096;4.410;2022-07-06T15:27:12;21.00;99.90
45042;DHT22;30779;52.096;4.410;2022-07-06T15:30:13;21.30;99.90
45042;DHT22;30779;52.096;4.410;2022-07-06T15:33:13;21.40;99.90
45042;DHT22;30779;52.096;4.410;2022-07-06T15:36:14;21.20;99.90
45042;DHT22;30779;52.096;4.410;2022-07-06T15:39:16;21.10;99.90
45042;DHT22;30779;52.096;4.410;2022-07-06T15:42:16;21.00;99.90
45042;DHT22;30779;52.096;4.410;2022-07-06T15:45:17;20.80;99.90
45042;DHT22;30779;52.096;4.410;2022-07-06T15:48:20;20.60;99.90
45042;DHT22;30779;52.096;4.410;2022-07-06T15:51:21;20.40;99.90
45042;DHT22;30779;52.096;4.410;2022-07-06T15:54:21;20.20;99.90
45042;DHT22;30779;52.096;4.410;2022-07-06T15:57:22;20.20;99.90
45042;DHT22;30779;52.096;4.410;2022-07-06T16:00:23;20.10;99.90
45042;DHT22;30779;52.096;4.410;2022-07-06T16:03:23;20.10;99.90
45042;DHT22;30779;52.096;4.410;2022-07-06T16:06:24;20.00;99.90
45042;DHT22;30779;52.096;4.410;2022-07-06T16:09:24;19.80;99.90
45042;DHT22;30779;52.096;4.410;2022-07-06T16:12:25;19.80;99.90
45042;DHT22;30779;52.096;4.410;2022-07-06T16:15:29;19.70;99.90
45042;DHT22;30779;52.096;4.410;2022-07-06T16:18:30;19.70;99.90
45042;DHT22;30779;52.096;4.410;2022-07-06T16:21:30;19.70;99.90
45042;DHT22;30779;52.096;4.410;2022-07-06T16:24:31;19.60;99.90
45042;DHT22;30779;52.096;4.410;2022-07-06T16:27:31;19.60;99.90
45042;DHT22;30779;52.096;4.410;2022-07-06T16:30:32;19.50;99.90
45042;DHT22;30779;52.096;4.410;2022-07-06T16:33:33;19.50;99.90
45042;DHT22;30779;52.096;4.410;2022-07-06T16:36:35;19.40;99.90
45042;DHT22;30779;52.096;4.410;2022-07-06T16:39:36;19.40;99.90
45042;DHT22;30779;52.096;4.410;2022-07-06T16:42:36;19.40;99.90
45042;DHT22;30779;52.096;4.410;2022-07-06T16:45:37;19.50;99.90
45042;DHT22;30779;52.096;4.410;2022-07-06T16:48:38;19.50;99.90
45042;DHT22;30779;52.096;4.410;2022-07-06T16:51:38;19.60;99.90
45042;DHT22;30779;52.096;4.410;2022-07-06T16:54:39;19.50;99.90
45042;DHT22;30779;52.096;4.410;2022-07-06T16:57:40;19.60;99.90
45042;DHT22;30779;52.096;4.410;2022-07-06T17:00:43;19.60;99.90
45042;DHT22;30779;52.096;4.410;2022-07-06T17:03:45;19.70;99.90
45042;DHT22;30779;52.096;4.410;2022-07-06T17:06:45;19.70;99.90
45042;DHT22;30779;52.096;4.410;2022-07-06T17:09:46;19.70;99.90
45042;DHT22;30779;52.096;4.410;2022-07-06T17:12:47;19.80;99.90
45042;DHT22;30779;52.096;4.410;2022-07-06T17:15:47;20.00;99.90
45042;DHT22;30779;52.096;4.410;2022-07-06T17:18:48;20.10;99.90
45042;DHT22;30779;52.096;4.410;2022-07-06T17:21:49;20.20;99.90
45042;DHT22;30779;52.096;4.410;2022-07-06T17:24:50;20.20;99.90
45042;DHT22;30779;52.096;4.410;2022-07-06T17:27:51;20.20;99.90
45042;DHT22;30779;52.096;4.410;2022-07-06T17:30:51;20.10;99.90
45042;DHT22;30779;52.096;4.410;2022-07-06T17:33:52;20.10;99.90
45042;DHT22;30779;52.096;4.410;2022-07-06T17:36:53;20.10;99.90
45042;DHT22;30779;52.096;4.410;2022-07-06T17:39:54;20.10;99.90
45042;DHT22;30779;52.096;4.410;2022-07-06T17:42:54;19.90;99.90
45042;DHT22;30779;52.096;4.410;2022-07-06T17:45:55;19.90;99.90
45042;DHT22;30779;52.096;4.410;2022-07-06T17:48:56;19.90;99.90
45042;DHT22;30779;52.096;4.410;2022-07-06T17:51:56;19.90;99.90
45042;DHT22;30779;52.096;4.410;2022-07-06T17:54:57;19.90;99.90
45042;DHT22;30779;52.096;4.410;2022-07-06T17:57:58;19.80;99.90
45042;DHT22;30779;52.096;4.410;2022-07-06T18:01:03;19.70;99.90
45042;DHT22;30779;52.096;4.410;2022-07-06T18:04:04;19.60;99.90
45042;DHT22;30779;52.096;4.410;2022-07-06T18:07:05;19.70;99.90
45042;DHT22;30779;52.096;4.410;2022-07-06T18:10:06;19.50;99.90
45042;DHT22;30779;52.096;4.410;2022-07-06T18:13:07;19.60;99.90
45042;DHT22;30779;52.096;4.410;2022-07-06T18:16:07;19.50;99.90
45042;DHT22;30779;52.096;4.410;2022-07-06T18:19:08;19.50;99.90
45042;DHT22;30779;52.096;4.410;2022-07-06T18:22:09;19.40;99.90
45042;DHT22;30779;52.096;4.410;2022-07-06T18:25:09;19.40;99.90
45042;DHT22;30779;52.096;4.410;2022-07-06T18:28:10;19.40;99.90
45042;DHT22;30779;52.096;4.410;2022-07-06T18:31:17;19.40;99.90
45042;DHT22;30779;52.096;4.410;2022-07-06T18:34:17;19.30;99.90
45042;DHT22;30779;52.096;4.410;2022-07-06T18:37:18;19.30;99.90
45042;DHT22;30779;52.096;4.410;2022-07-06T18:40:19;19.30;99.90
45042;DHT22;30779;52.096;4.410;2022-07-06T18:43:20;19.30;99.90
45042;DHT22;30779;52.096;4.410;2022-07-06T18:46:21;19.30;99.90
45042;DHT22;30779;52.096;4.410;2022-07-06T18:49:21;19.30;99.90
45042;DHT22;30779;52.096;4.410;2022-07-06T18:52:22;19.20;99.90
45042;DHT22;30779;52.096;4.410;2022-07-06T18:55:23;19.20;99.90
45042;DHT22;30779;52.096;4.410;2022-07-06T18:58:23;19.30;99.90
45042;DHT22;30779;52.096;4.410;2022-07-06T19:01:24;19.30;99.90
45042;DHT22;30779;52.096;4.410;2022-07-06T19:04:25;19.30;99.90
45042;DHT22;30779;52.096;4.410;2022-07-06T19:07:25;19.30;99.90
45042;DHT22;30779;52.096;4.410;2022-07-06T19:10:26;19.30;99.90
45042;DHT22;30779;52.096;4.410;2022-07-06T19:13:27;19.30;99.90
45042;DHT22;30779;52.096;4.410;2022-07-06T19:16:27;19.30;99.90
45042;DHT22;30779;52.096;4.410;2022-07-06T19:19:28;19.20;99.90
45042;DHT22;30779;52.096;4.410;2022-07-06T19:22:29;19.20;99.90
45042;DHT22;30779;52.096;4.410;2022-07-06T19:25:29;19.30;99.90
45042;DHT22;30779;52.096;4.410;2022-07-06T19:28:30;19.20;99.90
45042;DHT22;30779;52.096;4.410;2022-07-06T19:31:31;19.20;99.90
45042;DHT22;30779;52.096;4.410;2022-07-06T19:34:31;19.20;99.90
45042;DHT22;30779;52.096;4.410;2022-07-06T19:37:33;19.10;99.90
45042;DHT22;30779;52.096;4.410;2022-07-06T19:40:34;19.10;99.90
45042;DHT22;30779;52.096;4.410;2022-07-06T19:43:35;19.00;99.90
45042;DHT22;30779;52.096;4.410;2022-07-06T19:46:35;19.10;99.90
45042;DHT22;30779;52.096;4.410;2022-07-06T19:49:37;19.00;99.90
45042;DHT22;30779;52.096;4.410;2022-07-06T19:52:38;19.00;99.90
45042;DHT22;30779;52.096;4.410;2022-07-06T19:55:39;19.10;99.90
45042;DHT22;30779;52.096;4.410;2022-07-06T19:58:40;19.00;99.90
45042;DHT22;30779;52.096;4.410;2022-07-06T20:01:41;19.00;99.90
45042;DHT22;30779;52.096;4.410;2022-07-06T20:04:43;19.10;99.90
45042;DHT22;30779;52.096;4.410;2022-07-06T20:07:44;19.00;99.90
45042;DHT22;30779;52.096;4.410;2022-07-06T20:10:47;19.10;99.90
45042;DHT22;30779;52.096;4.410;2022-07-06T20:13:48;19.10;99.90
45042;DHT22;30779;52.096;4.410;2022-07-06T20:16:49;19.10;99.90
45042;DHT22;30779;52.096;4.410;2022-07-06T20:19:49;19.00;99.90
45042;DHT22;30779;52.096;4.410;2022-07-06T20:22:50;19.00;99.90
45042;DHT22;30779;52.096;4.410;2022-07-06T20:25:51;19.00;99.90
45042;DHT22;30779;52.096;4.410;2022-07-06T20:28:52;19.00;99.90
45042;DHT22;30779;52.096;4.410;2022-07-06T20:31:53;19.00;99.90
45042;DHT22;30779;52.096;4.410;2022-07-06T20:34:56;19.00;99.90
45042;DHT22;30779;52.096;4.410;2022-07-06T20:37:57;19.00;99.90
45042;DHT22;30779;52.096;4.410;2022-07-06T20:40:58;19.00;99.90
45042;DHT22;30779;52.096;4.410;2022-07-06T20:43:58;19.00;99.90
45042;DHT22;30779;52.096;4.410;2022-07-06T20:46:59;19.00;99.90
45042;DHT22;30779;52.096;4.410;2022-07-06T20:49:59;19.00;99.90
45042;DHT22;30779;52.096;4.410;2022-07-06T20:53:00;19.00;99.90
45042;DHT22;30779;52.096;4.410;2022-07-06T20:56:02;19.00;99.90
45042;DHT22;30779;52.096;4.410;2022-07-06T20:59:03;19.00;99.90
45042;DHT22;30779;52.096;4.410;2022-07-06T21:02:04;19.00;99.90
45042;DHT22;30779;52.096;4.410;2022-07-06T21:05:04;19.00;99.90
45042;DHT22;30779;52.096;4.410;2022-07-06T21:08:05;19.00;99.90
45042;DHT22;30779;52.096;4.410;2022-07-06T21:11:06;18.90;99.90
45042;DHT22;30779;52.096;4.410;2022-07-06T21:14:06;18.90;99.90
45042;DHT22;30779;52.096;4.410;2022-07-06T21:17:07;18.90;99.90
45042;DHT22;30779;52.096;4.410;2022-07-06T21:20:08;19.00;99.90
45042;DHT22;30779;52.096;4.410;2022-07-06T21:23:09;18.90;99.90
45042;DHT22;30779;52.096;4.410;2022-07-06T21:26:09;19.00;99.90
45042;DHT22;30779;52.096;4.410;2022-07-06T21:29:10;18.90;99.90
45042;DHT22;30779;52.096;4.410;2022-07-06T21:32:11;19.00;99.90
45042;DHT22;30779;52.096;4.410;2022-07-06T21:35:12;19.00;99.90
45042;DHT22;30779;52.096;4.410;2022-07-06T21:38:12;19.00;99.90
45042;DHT22;30779;52.096;4.410;2022-07-06T21:41:13;19.00;99.90
45042;DHT22;30779;52.096;4.410;2022-07-06T21:44:14;19.10;99.90
45042;DHT22;30779;52.096;4.410;2022-07-06T21:47:15;19.10;99.90
45042;DHT22;30779;52.096;4.410;2022-07-06T21:50:15;19.10;99.90
45042;DHT22;30779;52.096;4.410;2022-07-06T21:53:16;19.10;99.90
45042;DHT22;30779;52.096;4.410;2022-07-06T21:56:17;19.10;99.90
45042;DHT22;30779;52.096;4.410;2022-07-06T21:59:17;19.20;99.90
45042;DHT22;30779;52.096;4.410;2022-07-06T22:02:18;19.20;99.90
45042;DHT22;30779;52.096;4.410;2022-07-06T22:05:19;19.30;99.90
45042;DHT22;30779;52.096;4.410;2022-07-06T22:08:20;19.30;99.90
45042;DHT22;30779;52.096;4.410;2022-07-06T22:11:20;19.30;99.90
45042;DHT22;30779;52.096;4.410;2022-07-06T22:14:21;19.40;99.90
45042;DHT22;30779;52.096;4.410;2022-07-06T22:17:22;19.40;99.90
45042;DHT22;30779;52.096;4.410;2022-07-06T22:20:23;19.40;99.90
45042;DHT22;30779;52.096;4.410;2022-07-06T22:23:25;19.50;99.90
45042;DHT22;30779;52.096;4.410;2022-07-06T22:26:25;19.50;99.90
45042;DHT22;30779;52.096;4.410;2022-07-06T22:29:26;19.50;99.90
45042;DHT22;30779;52.096;4.410;2022-07-06T22:32:27;19.50;99.90
45042;DHT22;30779;52.096;4.410;2022-07-06T22:35:28;19.60;99.90
45042;DHT22;30779;52.096;4.410;2022-07-06T22:38:29;19.60;99.90
45042;DHT22;30779;52.096;4.410;2022-07-06T22:41:30;19.60;99.90
45042;DHT22;30779;52.096;4.410;2022-07-06T22:44:32;19.60;99.90
45042;DHT22;30779;52.096;4.410;2022-07-06T22:47:33;19.60;99.90
45042;DHT22;30779;52.096;4.410;2022-07-06T22:50:33;19.60;99.90
45042;DHT22;30779;52.096;4.410;2022-07-06T22:53:34;19.60;99.90
45042;DHT22;30779;52.096;4.410;2022-07-06T22:56:35;19.60;99.90
45042;DHT22;30779;52.096;4.410;2022-07-06T22:59:36;19.60;99.90
45042;DHT22;30779;52.096;4.410;2022-07-06T23:02:37;19.60;99.90
45042;DHT22;30779;52.096;4.410;2022-07-06T23:05:38;19.60;99.90
45042;DHT22;30779;52.096;4.410;2022-07-06T23:08:38;19.60;99.90
45042;DHT22;30779;52.096;4.410;2022-07-06T23:11:39;19.60;99.90
45042;DHT22;30779;52.096;4.410;2022-07-06T23:14:40;19.60;99.90
45042;DHT22;30779;52.096;4.410;2022-07-06T23:17:41;19.60;99.90
45042;DHT22;30779;52.096;4.410;2022-07-06T23:20:41;19.50;99.90
45042;DHT22;30779;52.096;4.410;2022-07-06T23:23:42;19.50;99.90
45042;DHT22;30779;52.096;4.410;2022-07-06T23:26:43;19.50;99.90
45042;DHT22;30779;52.096;4.410;2022-07-06T23:29:44;19.50;99.90
45042;DHT22;30779;52.096;4.410;2022-07-06T23:32:45;19.50;99.90
45042;DHT22;30779;52.096;4.410;2022-07-06T23:35:46;19.50;99.90
45042;DHT22;30779;52.096;4.410;2022-07-06T23:38:47;19.40;99.90
45042;DHT22;30779;52.096;4.410;2022-07-06T23:41:48;19.40;99.90
45042;DHT22;30779;52.096;4.410;2022-07-06T23:44:48;19.40;99.90
45042;DHT22;30779;52.096;4.410;2022-07-06T23:47:49;19.30;99.90
45042;DHT22;30779;52.096;4.410;2022-07-06T23:50:50;19.30;99.90
45042;DHT22;30779;52.096;4.410;2022-07-06T23:53:54;19.20;99.90
45042;DHT22;30779;52.096;4.410;2022-07-06T23:56:55;19.20;99.90
45042;DHT22;30779;52.096;4.410;2022-07-06T23:59:55;19.20;99.90
